sensor_id;sensor_type;location;lat;lon;timestamp;pressure;altitude;pressure_sealevel;temperature;humidity
46534;BME280;32260;52.008;4.752;2023-03-25T00:00:05;100165.06;;;12.09;59.08
46534;BME280;32260;52.008;4.752;2023-03-25T00:02:39;100170.59;;;12.03;59.41
46534;BME280;32260;52.008;4.752;2023-03-25T00:05:06;100174.47;;;11.92;59.24
46534;BME280;32260;52.008;4.752;2023-03-25T00:07:32;100173.72;;;11.89;59.29
46534;BME280;32260;52.008;4.752;2023-03-25T00:09:58;100165.28;;;12.03;59.16
46534;BME280;32260;52.008;4.752;2023-03-25T00:12:24;100178.16;;;11.88;59.63
46534;BME280;32260;52.008;4.752;2023-03-25T00:14:51;100176.31;;;11.90;59.69
46534;BME280;32260;52.008;4.752;2023-03-25T00:17:21;100188.50;;;11.97;59.48
46534;BME280;32260;52.008;4.752;2023-03-25T00:19:48;100158.88;;;11.83;59.69
46534;BME280;32260;52.008;4.752;2023-03-25T00:22:16;100178.06;;;11.91;59.41
46534;BME280;32260;52.008;4.752;2023-03-25T00:24:42;100176.97;;;11.72;60.08
46534;BME280;32260;52.008;4.752;2023-03-25T00:27:09;100158.25;;;11.76;59.99
46534;BME280;32260;52.008;4.752;2023-03-25T00:29:35;100165.78;;;11.87;59.49
46534;BME280;32260;52.008;4.752;2023-03-25T00:32:01;100156.75;;;11.93;59.39
46534;BME280;32260;52.008;4.752;2023-03-25T00:34:27;100158.81;;;11.85;59.41
46534;BME280;32260;52.008;4.752;2023-03-25T00:36:53;100150.56;;;11.92;59.82
46534;BME280;32260;52.008;4.752;2023-03-25T00:39:21;100170.41;;;11.82;59.59
46534;BME280;32260;52.008;4.752;2023-03-25T00:41:47;100155.94;;;11.91;59.42
46534;BME280;32260;52.008;4.752;2023-03-25T00:44:13;100162.28;;;11.87;58.94
46534;BME280;32260;52.008;4.752;2023-03-25T00:46:42;100150.31;;;11.75;59.84
46534;BME280;32260;52.008;4.752;2023-03-25T00:49:09;100155.59;;;11.76;59.73
46534;BME280;32260;52.008;4.752;2023-03-25T00:51:35;100155.41;;;11.81;59.31
46534;BME280;32260;52.008;4.752;2023-03-25T00:54:02;100160.63;;;11.84;59.63
46534;BME280;32260;52.008;4.752;2023-03-25T00:56:29;100159.78;;;11.82;59.09
46534;BME280;32260;52.008;4.752;2023-03-25T00:58:56;100157.81;;;11.89;58.65
46534;BME280;32260;52.008;4.752;2023-03-25T01:01:25;100157.84;;;11.87;59.27
46534;BME280;32260;52.008;4.752;2023-03-25T01:03:54;100170.25;;;11.87;58.78
46534;BME280;32260;52.008;4.752;2023-03-25T01:06:30;100158.19;;;11.78;59.55
46534;BME280;32260;52.008;4.752;2023-03-25T01:08:58;100155.19;;;11.87;58.93
46534;BME280;32260;52.008;4.752;2023-03-25T01:11:27;100155.31;;;11.84;59.18
46534;BME280;32260;52.008;4.752;2023-03-25T01:13:55;100157.03;;;11.85;59.41
46534;BME280;32260;52.008;4.752;2023-03-25T01:16:23;100139.84;;;11.95;59.63
46534;BME280;32260;52.008;4.752;2023-03-25T01:18:49;100153.78;;;11.77;59.74
46534;BME280;32260;52.008;4.752;2023-03-25T01:21:15;100142.81;;;11.86;60.65
46534;BME280;32260;52.008;4.752;2023-03-25T01:23:42;100155.84;;;11.69;61.97
46534;BME280;32260;52.008;4.752;2023-03-25T01:26:08;100139.72;;;11.49;63.76
46534;BME280;32260;52.008;4.752;2023-03-25T01:28:34;100153.34;;;11.39;63.97
46534;BME280;32260;52.008;4.752;2023-03-25T01:31:03;100160.72;;;11.30;64.66
46534;BME280;32260;52.008;4.752;2023-03-25T01:33:30;100159.69;;;11.08;65.91
46534;BME280;32260;52.008;4.752;2023-03-25T01:35:58;100160.84;;;10.99;66.02
46534;BME280;32260;52.008;4.752;2023-03-25T01:38:24;100162.91;;;10.91;65.93
46534;BME280;32260;52.008;4.752;2023-03-25T01:40:52;100158.44;;;10.91;66.64
46534;BME280;32260;52.008;4.752;2023-03-25T01:43:20;100147.19;;;10.84;67.18
46534;BME280;32260;52.008;4.752;2023-03-25T01:45:46;100141.91;;;10.84;66.92
46534;BME280;32260;52.008;4.752;2023-03-25T01:48:33;100156.72;;;10.90;67.79
46534;BME280;32260;52.008;4.752;2023-03-25T01:51:09;100142.88;;;10.82;67.50
46534;BME280;32260;52.008;4.752;2023-03-25T01:53:38;100153.53;;;10.79;68.21
46534;BME280;32260;52.008;4.752;2023-03-25T01:56:06;100148.03;;;10.58;68.34
46534;BME280;32260;52.008;4.752;2023-03-25T01:58:33;100150.28;;;10.71;68.16
46534;BME280;32260;52.008;4.752;2023-03-25T02:01:01;100145.78;;;10.73;68.23
46534;BME280;32260;52.008;4.752;2023-03-25T02:03:30;100148.34;;;10.76;68.31
46534;BME280;32260;52.008;4.752;2023-03-25T02:06:04;100148.97;;;10.84;67.52
46534;BME280;32260;52.008;4.752;2023-03-25T02:08:36;100144.81;;;10.77;67.95
46534;BME280;32260;52.008;4.752;2023-03-25T02:11:05;100131.38;;;10.81;68.16
46534;BME280;32260;52.008;4.752;2023-03-25T02:13:32;100133.06;;;10.84;67.71
46534;BME280;32260;52.008;4.752;2023-03-25T02:16:13;100136.94;;;10.74;68.27
46534;BME280;32260;52.008;4.752;2023-03-25T02:18:59;100129.41;;;10.88;67.59
46534;BME280;32260;52.008;4.752;2023-03-25T02:25:07;100134.09;;;10.80;67.93
46534;BME280;32260;52.008;4.752;2023-03-25T02:39:13;100136.06;;;11.02;67.16
46534;BME280;32260;52.008;4.752;2023-03-25T02:42:06;100121.16;;;10.97;67.33
46534;BME280;32260;52.008;4.752;2023-03-25T02:44:50;100116.72;;;10.98;67.49
46534;BME280;32260;52.008;4.752;2023-03-25T02:47:23;100113.88;;;11.04;66.88
46534;BME280;32260;52.008;4.752;2023-03-25T02:49:56;100119.31;;;10.99;66.92
46534;BME280;32260;52.008;4.752;2023-03-25T02:52:27;100117.69;;;10.95;67.43
46534;BME280;32260;52.008;4.752;2023-03-25T02:54:57;100114.84;;;11.02;67.55
46534;BME280;32260;52.008;4.752;2023-03-25T02:57:27;100113.00;;;11.04;67.21
46534;BME280;32260;52.008;4.752;2023-03-25T02:59:57;100111.50;;;10.95;67.73
46534;BME280;32260;52.008;4.752;2023-03-25T03:02:26;100104.13;;;11.05;67.68
46534;BME280;32260;52.008;4.752;2023-03-25T03:04:56;100108.50;;;11.06;67.66
46534;BME280;32260;52.008;4.752;2023-03-25T03:07:26;100110.25;;;11.07;67.21
46534;BME280;32260;52.008;4.752;2023-03-25T03:11:01;100107.09;;;10.95;67.94
46534;BME280;32260;52.008;4.752;2023-03-25T03:18:38;100084.72;;;11.04;67.39
46534;BME280;32260;52.008;4.752;2023-03-25T03:21:17;100094.56;;;11.00;67.92
46534;BME280;32260;52.008;4.752;2023-03-25T03:23:55;100090.56;;;10.87;68.66
46534;BME280;32260;52.008;4.752;2023-03-25T03:29:09;100090.44;;;10.92;69.27
46534;BME280;32260;52.008;4.752;2023-03-25T03:31:44;100099.56;;;10.83;69.43
46534;BME280;32260;52.008;4.752;2023-03-25T03:34:21;100085.34;;;10.84;70.07
46534;BME280;32260;52.008;4.752;2023-03-25T03:36:52;100070.69;;;10.74;70.83
46534;BME280;32260;52.008;4.752;2023-03-25T03:39:27;100085.06;;;10.66;70.68
46534;BME280;32260;52.008;4.752;2023-03-25T03:42:02;100075.59;;;10.59;71.56
46534;BME280;32260;52.008;4.752;2023-03-25T03:44:33;100097.25;;;10.44;72.22
46534;BME280;32260;52.008;4.752;2023-03-25T03:49:41;100086.59;;;10.45;72.33
46534;BME280;32260;52.008;4.752;2023-03-25T03:52:18;100088.41;;;10.45;72.30
46534;BME280;32260;52.008;4.752;2023-03-25T03:55:05;100092.97;;;10.40;73.08
46534;BME280;32260;52.008;4.752;2023-03-25T03:57:40;100100.16;;;10.34;72.95
46534;BME280;32260;52.008;4.752;2023-03-25T04:00:21;100099.28;;;10.34;73.16
46534;BME280;32260;52.008;4.752;2023-03-25T04:05:31;100098.81;;;10.21;74.01
46534;BME280;32260;52.008;4.752;2023-03-25T04:08:03;100104.06;;;10.23;74.33
46534;BME280;32260;52.008;4.752;2023-03-25T04:10:44;100097.59;;;10.31;73.85
46534;BME280;32260;52.008;4.752;2023-03-25T04:13:18;100107.75;;;10.17;74.56
46534;BME280;32260;52.008;4.752;2023-03-25T04:15:46;100107.84;;;10.14;74.38
46534;BME280;32260;52.008;4.752;2023-03-25T04:18:13;100090.22;;;10.13;74.21
46534;BME280;32260;52.008;4.752;2023-03-25T04:20:39;100097.00;;;10.23;73.89
46534;BME280;32260;52.008;4.752;2023-03-25T04:23:10;100099.06;;;10.12;73.58
46534;BME280;32260;52.008;4.752;2023-03-25T04:25:42;100091.78;;;10.20;73.61
46534;BME280;32260;52.008;4.752;2023-03-25T04:28:09;100093.78;;;10.12;73.38
46534;BME280;32260;52.008;4.752;2023-03-25T04:30:39;100092.59;;;10.22;72.86
46534;BME280;32260;52.008;4.752;2023-03-25T04:33:05;100092.50;;;10.25;72.21
46534;BME280;32260;52.008;4.752;2023-03-25T04:35:31;100092.31;;;10.31;72.09
46534;BME280;32260;52.008;4.752;2023-03-25T04:37:58;100091.59;;;10.26;71.54
46534;BME280;32260;52.008;4.752;2023-03-25T04:40:25;100084.28;;;10.34;71.27
46534;BME280;32260;52.008;4.752;2023-03-25T04:42:51;100104.00;;;10.24;70.94
46534;BME280;32260;52.008;4.752;2023-03-25T04:45:18;100084.22;;;10.38;71.05
46534;BME280;32260;52.008;4.752;2023-03-25T04:47:47;100107.28;;;10.32;71.07
46534;BME280;32260;52.008;4.752;2023-03-25T04:52:53;100115.75;;;10.45;70.30
46534;BME280;32260;52.008;4.752;2023-03-25T04:55:20;100127.81;;;10.54;70.09
46534;BME280;32260;52.008;4.752;2023-03-25T04:57:47;100118.44;;;10.44;70.03
46534;BME280;32260;52.008;4.752;2023-03-25T05:00:15;100118.00;;;10.58;69.57
46534;BME280;32260;52.008;4.752;2023-03-25T05:02:46;100110.81;;;10.61;69.80
46534;BME280;32260;52.008;4.752;2023-03-25T05:05:15;100127.59;;;10.62;69.09
46534;BME280;32260;52.008;4.752;2023-03-25T05:07:45;100127.59;;;10.62;68.91
46534;BME280;32260;52.008;4.752;2023-03-25T05:10:12;100126.72;;;10.61;68.55
46534;BME280;32260;52.008;4.752;2023-03-25T05:12:38;100124.06;;;10.61;68.50
46534;BME280;32260;52.008;4.752;2023-03-25T05:15:05;100131.03;;;10.65;68.58
46534;BME280;32260;52.008;4.752;2023-03-25T05:17:32;100121.28;;;10.66;68.55
46534;BME280;32260;52.008;4.752;2023-03-25T05:19:58;100130.25;;;10.62;68.42
46534;BME280;32260;52.008;4.752;2023-03-25T05:22:24;100118.44;;;10.72;67.94
46534;BME280;32260;52.008;4.752;2023-03-25T05:24:50;100116.94;;;10.63;67.67
46534;BME280;32260;52.008;4.752;2023-03-25T05:27:18;100148.63;;;10.66;67.95
46534;BME280;32260;52.008;4.752;2023-03-25T05:29:45;100141.91;;;10.56;67.76
46534;BME280;32260;52.008;4.752;2023-03-25T05:32:12;100131.50;;;10.50;67.52
46534;BME280;32260;52.008;4.752;2023-03-25T05:34:43;100122.31;;;10.62;67.38
46534;BME280;32260;52.008;4.752;2023-03-25T05:37:12;100131.13;;;10.62;66.99
46534;BME280;32260;52.008;4.752;2023-03-25T05:39:39;100114.78;;;10.48;67.03
46534;BME280;32260;52.008;4.752;2023-03-25T05:42:05;100128.56;;;10.59;66.80
46534;BME280;32260;52.008;4.752;2023-03-25T05:44:31;100138.59;;;10.48;66.90
46534;BME280;32260;52.008;4.752;2023-03-25T05:46:58;100134.28;;;10.45;67.05
46534;BME280;32260;52.008;4.752;2023-03-25T05:49:29;100138.34;;;10.57;67.00
46534;BME280;32260;52.008;4.752;2023-03-25T05:51:55;100148.16;;;10.54;66.50
46534;BME280;32260;52.008;4.752;2023-03-25T05:54:22;100149.00;;;10.56;66.72
46534;BME280;32260;52.008;4.752;2023-03-25T05:56:50;100133.72;;;10.64;66.58
46534;BME280;32260;52.008;4.752;2023-03-25T05:59:16;100130.34;;;10.59;66.29
46534;BME280;32260;52.008;4.752;2023-03-25T06:01:42;100157.53;;;10.65;66.69
46534;BME280;32260;52.008;4.752;2023-03-25T06:04:11;100170.91;;;10.61;66.43
46534;BME280;32260;52.008;4.752;2023-03-25T06:06:39;100161.03;;;10.66;66.82
46534;BME280;32260;52.008;4.752;2023-03-25T06:09:06;100147.66;;;10.71;66.16
46534;BME280;32260;52.008;4.752;2023-03-25T06:11:33;100164.88;;;10.84;66.54
46534;BME280;32260;52.008;4.752;2023-03-25T06:14:04;100176.59;;;10.77;66.84
46534;BME280;32260;52.008;4.752;2023-03-25T06:16:30;100160.78;;;10.74;67.14
46534;BME280;32260;52.008;4.752;2023-03-25T06:18:58;100152.03;;;10.72;67.45
46534;BME280;32260;52.008;4.752;2023-03-25T06:21:27;100168.38;;;10.56;68.09
46534;BME280;32260;52.008;4.752;2023-03-25T06:23:53;100156.09;;;10.54;68.08
46534;BME280;32260;52.008;4.752;2023-03-25T06:26:21;100163.81;;;10.61;67.58
46534;BME280;32260;52.008;4.752;2023-03-25T06:28:48;100159.63;;;10.54;67.79
46534;BME280;32260;52.008;4.752;2023-03-25T06:31:16;100178.25;;;10.51;67.86
46534;BME280;32260;52.008;4.752;2023-03-25T06:33:43;100159.25;;;10.38;68.05
46534;BME280;32260;52.008;4.752;2023-03-25T06:36:10;100172.66;;;10.60;67.97
46534;BME280;32260;52.008;4.752;2023-03-25T06:38:38;100173.59;;;10.59;67.85
46534;BME280;32260;52.008;4.752;2023-03-25T06:41:04;100161.03;;;10.66;67.66
46534;BME280;32260;52.008;4.752;2023-03-25T06:43:32;100165.50;;;10.64;67.20
46534;BME280;32260;52.008;4.752;2023-03-25T06:45:58;100182.34;;;10.61;67.26
46534;BME280;32260;52.008;4.752;2023-03-25T06:48:25;100171.38;;;10.74;66.78
46534;BME280;32260;52.008;4.752;2023-03-25T06:50:51;100181.78;;;10.80;66.74
46534;BME280;32260;52.008;4.752;2023-03-25T06:53:18;100175.72;;;10.76;67.12
46534;BME280;32260;52.008;4.752;2023-03-25T06:55:44;100192.53;;;10.75;66.77
46534;BME280;32260;52.008;4.752;2023-03-25T06:58:11;100188.47;;;10.63;66.94
46534;BME280;32260;52.008;4.752;2023-03-25T07:00:37;100185.53;;;10.73;66.47
46534;BME280;32260;52.008;4.752;2023-03-25T07:03:03;100177.06;;;10.90;66.26
46534;BME280;32260;52.008;4.752;2023-03-25T07:05:30;100191.81;;;10.98;66.39
46534;BME280;32260;52.008;4.752;2023-03-25T07:07:57;100221.97;;;10.94;65.89
46534;BME280;32260;52.008;4.752;2023-03-25T07:10:23;100205.88;;;11.00;65.57
46534;BME280;32260;52.008;4.752;2023-03-25T07:12:50;100187.28;;;11.02;65.48
46534;BME280;32260;52.008;4.752;2023-03-25T07:15:16;100189.91;;;11.02;65.09
46534;BME280;32260;52.008;4.752;2023-03-25T07:17:42;100197.03;;;11.02;65.10
46534;BME280;32260;52.008;4.752;2023-03-25T07:20:09;100192.38;;;11.08;64.47
46534;BME280;32260;52.008;4.752;2023-03-25T07:22:35;100195.47;;;11.21;64.47
46534;BME280;32260;52.008;4.752;2023-03-25T07:25:01;100205.94;;;11.26;64.40
46534;BME280;32260;52.008;4.752;2023-03-25T07:27:27;100211.50;;;11.18;64.37
46534;BME280;32260;52.008;4.752;2023-03-25T07:29:54;100192.47;;;11.05;64.04
46534;BME280;32260;52.008;4.752;2023-03-25T07:32:20;100197.38;;;11.17;63.51
46534;BME280;32260;52.008;4.752;2023-03-25T07:34:46;100196.25;;;11.25;63.55
46534;BME280;32260;52.008;4.752;2023-03-25T07:37:12;100197.28;;;11.21;63.31
46534;BME280;32260;52.008;4.752;2023-03-25T07:39:38;100199.25;;;11.41;62.94
46534;BME280;32260;52.008;4.752;2023-03-25T07:42:05;100209.44;;;11.26;63.46
46534;BME280;32260;52.008;4.752;2023-03-25T07:44:32;100207.91;;;11.46;62.72
46534;BME280;32260;52.008;4.752;2023-03-25T07:46:58;100207.66;;;11.54;62.58
46534;BME280;32260;52.008;4.752;2023-03-25T07:49:24;100198.69;;;11.31;62.49
46534;BME280;32260;52.008;4.752;2023-03-25T07:51:50;100198.75;;;11.29;62.96
46534;BME280;32260;52.008;4.752;2023-03-25T07:54:16;100211.56;;;11.43;62.27
46534;BME280;32260;52.008;4.752;2023-03-25T07:56:42;100214.84;;;11.50;62.25
46534;BME280;32260;52.008;4.752;2023-03-25T07:59:08;100205.13;;;11.51;62.70
46534;BME280;32260;52.008;4.752;2023-03-25T08:01:34;100202.34;;;11.54;63.61
46534;BME280;32260;52.008;4.752;2023-03-25T08:04:01;100223.75;;;11.49;63.20
46534;BME280;32260;52.008;4.752;2023-03-25T08:06:27;100220.88;;;11.55;63.13
46534;BME280;32260;52.008;4.752;2023-03-25T08:08:53;100213.44;;;11.40;63.37
46534;BME280;32260;52.008;4.752;2023-03-25T08:11:20;100235.63;;;11.37;64.10
46534;BME280;32260;52.008;4.752;2023-03-25T08:13:47;100227.75;;;11.61;63.50
46534;BME280;32260;52.008;4.752;2023-03-25T08:16:13;100228.72;;;11.58;63.62
46534;BME280;32260;52.008;4.752;2023-03-25T08:18:40;100218.25;;;11.55;63.37
46534;BME280;32260;52.008;4.752;2023-03-25T08:21:10;100233.50;;;11.74;62.72
46534;BME280;32260;52.008;4.752;2023-03-25T08:23:37;100233.75;;;11.68;62.46
46534;BME280;32260;52.008;4.752;2023-03-25T08:26:03;100239.16;;;11.90;62.13
46534;BME280;32260;52.008;4.752;2023-03-25T08:28:31;100233.91;;;11.88;62.31
46534;BME280;32260;52.008;4.752;2023-03-25T08:30:57;100229.81;;;12.05;62.38
46534;BME280;32260;52.008;4.752;2023-03-25T08:33:27;100237.88;;;12.02;61.72
46534;BME280;32260;52.008;4.752;2023-03-25T08:36:00;100233.81;;;12.17;61.12
46534;BME280;32260;52.008;4.752;2023-03-25T08:38:27;100225.78;;;12.18;61.62
46534;BME280;32260;52.008;4.752;2023-03-25T08:40:57;100220.47;;;12.18;60.66
46534;BME280;32260;52.008;4.752;2023-03-25T08:43:24;100231.38;;;12.10;61.49
46534;BME280;32260;52.008;4.752;2023-03-25T08:45:51;100250.66;;;12.16;61.37
46534;BME280;32260;52.008;4.752;2023-03-25T08:48:20;100225.53;;;12.01;60.45
46534;BME280;32260;52.008;4.752;2023-03-25T08:50:47;100226.47;;;12.23;60.99
46534;BME280;32260;52.008;4.752;2023-03-25T08:53:13;100230.06;;;12.22;60.12
46534;BME280;32260;52.008;4.752;2023-03-25T08:55:40;100217.28;;;12.34;60.93
46534;BME280;32260;52.008;4.752;2023-03-25T08:58:06;100234.34;;;12.26;60.29
46534;BME280;32260;52.008;4.752;2023-03-25T09:00:34;100240.81;;;12.43;60.70
46534;BME280;32260;52.008;4.752;2023-03-25T09:03:02;100258.78;;;12.36;59.84
46534;BME280;32260;52.008;4.752;2023-03-25T09:05:28;100229.94;;;12.25;60.06
46534;BME280;32260;52.008;4.752;2023-03-25T09:07:54;100242.09;;;12.33;60.18
46534;BME280;32260;52.008;4.752;2023-03-25T09:10:20;100254.63;;;12.53;59.99
46534;BME280;32260;52.008;4.752;2023-03-25T09:12:47;100235.13;;;12.54;59.51
46534;BME280;32260;52.008;4.752;2023-03-25T09:15:13;100230.34;;;12.62;59.46
46534;BME280;32260;52.008;4.752;2023-03-25T09:17:40;100232.84;;;12.67;59.10
46534;BME280;32260;52.008;4.752;2023-03-25T09:20:07;100246.88;;;12.46;59.26
46534;BME280;32260;52.008;4.752;2023-03-25T09:22:35;100239.53;;;12.53;58.64
46534;BME280;32260;52.008;4.752;2023-03-25T09:25:02;100239.22;;;12.62;59.27
46534;BME280;32260;52.008;4.752;2023-03-25T09:27:28;100269.00;;;12.47;58.37
46534;BME280;32260;52.008;4.752;2023-03-25T09:29:54;100275.00;;;12.52;58.23
46534;BME280;32260;52.008;4.752;2023-03-25T09:32:20;100268.31;;;12.42;58.33
46534;BME280;32260;52.008;4.752;2023-03-25T09:34:46;100268.78;;;12.53;58.38
46534;BME280;32260;52.008;4.752;2023-03-25T09:37:13;100269.47;;;12.58;58.52
46534;BME280;32260;52.008;4.752;2023-03-25T09:39:39;100246.47;;;12.81;58.18
46534;BME280;32260;52.008;4.752;2023-03-25T09:42:23;100248.13;;;13.06;57.75
46534;BME280;32260;52.008;4.752;2023-03-25T09:47:30;100244.44;;;12.88;56.80
46534;BME280;32260;52.008;4.752;2023-03-25T09:50:02;100250.38;;;13.17;56.15
46534;BME280;32260;52.008;4.752;2023-03-25T09:52:35;100253.34;;;13.09;55.73
46534;BME280;32260;52.008;4.752;2023-03-25T09:55:08;100253.47;;;13.28;55.78
46534;BME280;32260;52.008;4.752;2023-03-25T09:57:45;100264.91;;;13.30;55.54
46534;BME280;32260;52.008;4.752;2023-03-25T10:00:19;100251.47;;;13.33;55.19
46534;BME280;32260;52.008;4.752;2023-03-25T10:03:10;100277.47;;;13.26;55.06
46534;BME280;32260;52.008;4.752;2023-03-25T10:05:49;100275.78;;;13.48;55.17
46534;BME280;32260;52.008;4.752;2023-03-25T10:08:31;100285.59;;;13.46;54.58
46534;BME280;32260;52.008;4.752;2023-03-25T10:11:14;100262.41;;;13.49;53.07
46534;BME280;32260;52.008;4.752;2023-03-25T10:17:14;100293.34;;;13.52;54.21
46534;BME280;32260;52.008;4.752;2023-03-25T10:22:48;100288.66;;;13.58;53.79
46534;BME280;32260;52.008;4.752;2023-03-25T10:25:17;100284.84;;;13.64;53.89
46534;BME280;32260;52.008;4.752;2023-03-25T10:27:49;100301.53;;;13.47;53.90
46534;BME280;32260;52.008;4.752;2023-03-25T10:32:58;100283.69;;;13.49;53.65
46534;BME280;32260;52.008;4.752;2023-03-25T10:35:33;100291.34;;;13.57;54.28
46534;BME280;32260;52.008;4.752;2023-03-25T10:38:04;100289.66;;;13.77;53.80
46534;BME280;32260;52.008;4.752;2023-03-25T10:40:37;100293.88;;;13.82;54.91
46534;BME280;32260;52.008;4.752;2023-03-25T10:43:26;100305.53;;;13.57;53.31
46534;BME280;32260;52.008;4.752;2023-03-25T10:45:59;100331.22;;;13.58;53.61
46534;BME280;32260;52.008;4.752;2023-03-25T10:48:29;100351.53;;;13.39;54.10
46534;BME280;32260;52.008;4.752;2023-03-25T10:51:16;100341.84;;;13.36;54.48
46534;BME280;32260;52.008;4.752;2023-03-25T10:53:47;100344.91;;;13.25;53.68
46534;BME280;32260;52.008;4.752;2023-03-25T10:56:19;100319.03;;;13.53;53.93
46534;BME280;32260;52.008;4.752;2023-03-25T10:58:51;100315.44;;;13.76;53.98
46534;BME280;32260;52.008;4.752;2023-03-25T11:01:20;100355.00;;;13.41;54.58
46534;BME280;32260;52.008;4.752;2023-03-25T11:03:51;100322.31;;;13.59;54.61
46534;BME280;32260;52.008;4.752;2023-03-25T11:06:28;100308.94;;;13.61;55.11
46534;BME280;32260;52.008;4.752;2023-03-25T11:11:46;100346.06;;;13.64;54.53
46534;BME280;32260;52.008;4.752;2023-03-25T11:14:12;100344.22;;;13.88;54.46
46534;BME280;32260;52.008;4.752;2023-03-25T11:16:42;100314.88;;;13.68;54.06
46534;BME280;32260;52.008;4.752;2023-03-25T11:19:18;100315.09;;;13.84;54.12
46534;BME280;32260;52.008;4.752;2023-03-25T11:22:00;100335.97;;;13.95;53.89
46534;BME280;32260;52.008;4.752;2023-03-25T11:27:51;100327.72;;;14.01;52.99
46534;BME280;32260;52.008;4.752;2023-03-25T11:30:22;100350.75;;;14.02;52.26
46534;BME280;32260;52.008;4.752;2023-03-25T11:33:12;100332.44;;;14.15;51.74
46534;BME280;32260;52.008;4.752;2023-03-25T11:35:41;100335.28;;;14.10;51.85
46534;BME280;32260;52.008;4.752;2023-03-25T11:38:21;100365.53;;;14.09;51.63
46534;BME280;32260;52.008;4.752;2023-03-25T11:40:53;100336.28;;;14.07;51.98
46534;BME280;32260;52.008;4.752;2023-03-25T11:43:34;100325.94;;;13.79;52.25
46534;BME280;32260;52.008;4.752;2023-03-25T11:46:22;100336.16;;;13.90;51.79
46534;BME280;32260;52.008;4.752;2023-03-25T11:49:10;100342.72;;;13.81;52.13
46534;BME280;32260;52.008;4.752;2023-03-25T11:51:39;100339.00;;;13.85;52.17
46534;BME280;32260;52.008;4.752;2023-03-25T11:54:10;100344.94;;;13.92;52.96
46534;BME280;32260;52.008;4.752;2023-03-25T11:56:40;100349.03;;;14.01;52.18
46534;BME280;32260;52.008;4.752;2023-03-25T11:59:19;100327.16;;;13.93;52.17
46534;BME280;32260;52.008;4.752;2023-03-25T12:01:48;100327.19;;;14.13;52.79
46534;BME280;32260;52.008;4.752;2023-03-25T12:04:18;100334.47;;;14.08;52.18
46534;BME280;32260;52.008;4.752;2023-03-25T12:09:31;100327.31;;;14.10;51.87
46534;BME280;32260;52.008;4.752;2023-03-25T12:15:02;100332.00;;;14.26;51.43
46534;BME280;32260;52.008;4.752;2023-03-25T12:26:59;100328.25;;;14.30;51.29
46534;BME280;32260;52.008;4.752;2023-03-25T12:31:41;100329.81;;;14.75;50.69
46534;BME280;32260;52.008;4.752;2023-03-25T12:34:44;100327.81;;;14.60;50.88
46534;BME280;32260;52.008;4.752;2023-03-25T12:43:15;100340.34;;;14.78;50.47
46534;BME280;32260;52.008;4.752;2023-03-25T12:48:56;100350.22;;;14.55;49.86
46534;BME280;32260;52.008;4.752;2023-03-25T12:51:50;100366.88;;;14.40;50.06
46534;BME280;32260;52.008;4.752;2023-03-25T12:54:42;100339.28;;;14.62;49.75
46534;BME280;32260;52.008;4.752;2023-03-25T12:57:32;100366.16;;;14.57;50.13
46534;BME280;32260;52.008;4.752;2023-03-25T13:00:18;100372.16;;;14.21;50.55
46534;BME280;32260;52.008;4.752;2023-03-25T13:06:53;100373.00;;;14.21;51.49
46534;BME280;32260;52.008;4.752;2023-03-25T13:08:50;100385.00;;;14.11;51.31
46534;BME280;32260;52.008;4.752;2023-03-25T13:11:25;100391.41;;;14.05;51.29
46534;BME280;32260;52.008;4.752;2023-03-25T13:13:57;100393.97;;;14.08;51.00
46534;BME280;32260;52.008;4.752;2023-03-25T13:16:28;100371.97;;;14.26;50.85
46534;BME280;32260;52.008;4.752;2023-03-25T13:21:42;100385.66;;;14.16;51.74
46534;BME280;32260;52.008;4.752;2023-03-25T13:24:16;100387.13;;;14.23;51.48
46534;BME280;32260;52.008;4.752;2023-03-25T13:26:45;100397.78;;;14.23;51.60
46534;BME280;32260;52.008;4.752;2023-03-25T13:29:29;100390.63;;;14.26;51.60
46534;BME280;32260;52.008;4.752;2023-03-25T13:32:00;100393.38;;;14.02;50.88
46534;BME280;32260;52.008;4.752;2023-03-25T13:34:32;100407.91;;;13.93;51.59
46534;BME280;32260;52.008;4.752;2023-03-25T13:37:10;100414.22;;;13.90;52.02
46534;BME280;32260;52.008;4.752;2023-03-25T13:43:49;100448.66;;;13.25;58.21
46534;BME280;32260;52.008;4.752;2023-03-25T13:45:43;100440.78;;;12.48;62.72
46534;BME280;32260;52.008;4.752;2023-03-25T13:50:55;100406.09;;;12.27;66.30
46534;BME280;32260;52.008;4.752;2023-03-25T13:53:44;100402.41;;;12.32;64.86
46534;BME280;32260;52.008;4.752;2023-03-25T14:04:43;100412.88;;;12.61;63.47
46534;BME280;32260;52.008;4.752;2023-03-25T14:07:33;100402.88;;;12.93;61.67
46534;BME280;32260;52.008;4.752;2023-03-25T14:12:46;100413.31;;;13.22;58.86
46534;BME280;32260;52.008;4.752;2023-03-25T14:15:20;100416.75;;;13.25;58.62
46534;BME280;32260;52.008;4.752;2023-03-25T14:17:48;100398.81;;;13.54;58.37
46534;BME280;32260;52.008;4.752;2023-03-25T14:20:25;100459.25;;;13.52;56.05
46534;BME280;32260;52.008;4.752;2023-03-25T14:22:57;100402.63;;;13.71;55.54
46534;BME280;32260;52.008;4.752;2023-03-25T14:25:33;100415.03;;;13.93;55.10
46534;BME280;32260;52.008;4.752;2023-03-25T14:28:02;100421.97;;;13.97;54.51
46534;BME280;32260;52.008;4.752;2023-03-25T14:30:30;100428.94;;;13.79;54.90
46534;BME280;32260;52.008;4.752;2023-03-25T14:32:57;100428.75;;;13.83;54.26
46534;BME280;32260;52.008;4.752;2023-03-25T14:38:18;100427.75;;;13.86;54.39
46534;BME280;32260;52.008;4.752;2023-03-25T14:40:48;100428.19;;;13.75;54.29
46534;BME280;32260;52.008;4.752;2023-03-25T14:49:09;100437.63;;;14.27;51.72
46534;BME280;32260;52.008;4.752;2023-03-25T14:51:44;100435.69;;;14.30;51.94
46534;BME280;32260;52.008;4.752;2023-03-25T14:54:31;100455.56;;;14.44;51.39